Time;durP1;ratioP1;P1;durP2;ratioP2;P2;SDS_P1;SDS_P2;PMS_P1;PMS_P2;Temp;Humidity;BMP_temperature;BMP_pressure;BME280_temperature;BME280_humidity;BME280_pressure;Samples;Min_cycle;Max_cycle;Signal;HPM_P1;HPM_P2
2022/01/03 00:03:28;;;;;;;6.87;6.17;;;15.00;99.90;;;;;;10194238;29;20265;-80
2022/01/03 00:08:31;;;;;;;8.87;6.47;;;14.90;99.90;;;;;;10178472;29;20825;-80
2022/01/03 00:13:34;;;;;;;7.60;5.33;;;15.20;99.90;;;;;;10194180;29;20265;-80
2022/01/03 00:18:38;;;;;;;7.83;6.30;;;14.90;99.90;;;;;;10210166;29;20289;-80
2022/01/03 00:23:50;;;;;;;5.77;4.57;;;15.00;99.90;;;;;;10184439;29;20239;-80
2022/01/03 00:29:07;;;;;;;9.10;6.33;;;14.50;99.90;;;;;;10210285;29;20239;-80
2022/01/03 00:34:12;;;;;;;6.33;5.73;;;14.80;99.90;;;;;;10192923;29;20652;-80
2022/01/03 00:39:15;;;;;;;8.50;6.80;;;14.80;99.90;;;;;;10191958;29;20238;-80
2022/01/03 00:44:17;;;;;;;6.73;5.80;;;14.70;99.90;;;;;;10186982;29;20658;-81
2022/01/03 00:49:20;;;;;;;7.50;5.27;;;14.60;99.90;;;;;;10176099;29;20244;-81
2022/01/03 00:54:23;;;;;;;6.23;5.63;;;14.90;99.90;;;;;;10189455;29;20262;-81
2022/01/03 00:59:56;;;;;;;6.57;5.93;;;14.40;99.90;;;;;;10191775;29;20245;-80
2022/01/03 01:04:59;;;;;;;6.27;5.47;;;14.80;99.90;;;;;;10211123;28;20253;-81
2022/01/03 01:10:04;;;;;;;6.43;5.17;;;15.00;99.90;;;;;;10191663;29;20290;-81
2022/01/03 01:15:07;;;;;;;6.57;5.87;;;14.40;99.90;;;;;;10153629;29;20266;-81
2022/01/03 01:20:12;;;;;;;8.03;6.27;;;14.30;99.90;;;;;;10175430;29;20263;-80
2022/01/03 01:30:20;;;;;;;6.73;5.17;;;14.80;99.90;;;;;;10191102;29;20254;-80
2022/01/03 01:35:29;;;;;;;7.07;6.37;;;14.30;99.90;;;;;;10190882;29;20654;-80
2022/01/03 01:40:32;;;;;;;6.73;5.97;;;14.70;99.90;;;;;;10190743;29;20238;-80
2022/01/03 01:45:35;;;;;;;6.90;6.30;;;14.40;99.90;;;;;;10183613;29;20309;-81
2022/01/03 01:50:41;;;;;;;8.27;6.37;;;14.50;99.90;;;;;;10175126;29;20210;-80
2022/01/03 01:55:50;;;;;;;7.00;5.87;;;14.60;99.90;;;;;;10222007;28;20287;-81
2022/01/03 02:01:02;;;;;;;8.43;6.70;;;14.40;99.90;;;;;;10190488;29;20203;-81
2022/01/03 02:06:26;;;;;;;7.50;6.73;;;14.60;99.90;;;;;;10190746;29;20293;-80
2022/01/03 02:11:48;;;;;;;7.13;6.43;;;14.80;99.90;;;;;;10191734;29;20715;-81
2022/01/03 02:16:53;;;;;;;7.27;5.30;;;14.40;99.90;;;;;;10205489;29;20240;-81
2022/01/03 02:21:57;;;;;;;6.53;5.87;;;14.40;99.90;;;;;;10207870;29;20668;-81
2022/01/03 02:27:08;;;;;;;7.50;6.43;;;14.30;99.90;;;;;;10213613;29;20251;-80
2022/01/03 02:32:11;;;;;;;7.20;4.27;;;14.00;99.90;;;;;;10212753;29;20271;-81
2022/01/03 02:37:14;;;;;;;10.50;6.43;;;12.60;99.90;;;;;;10213269;29;20303;-81
2022/01/03 02:42:23;;;;;;;8.83;7.13;;;12.50;99.90;;;;;;10197251;29;20272;-81
2022/01/03 02:47:27;;;;;;;10.37;7.30;;;12.60;99.90;;;;;;10212666;29;20214;-81
2022/01/03 02:52:30;;;;;;;9.60;8.13;;;12.20;99.90;;;;;;10196418;29;20267;-81
2022/01/03 02:57:37;;;;;;;8.80;6.80;;;12.00;99.90;;;;;;10211455;29;20238;-81
2022/01/03 03:02:40;;;;;;;8.60;7.13;;;13.10;99.90;;;;;;10212681;29;20244;-81
2022/01/03 03:07:47;;;;;;;11.47;6.07;;;13.40;99.90;;;;;;10196260;29;20215;-81
2022/01/03 03:12:52;;;;;;;7.47;6.10;;;13.10;99.90;;;;;;10180969;29;20272;-81
2022/01/03 03:17:57;;;;;;;7.93;7.10;;;13.40;99.90;;;;;;10212218;29;20558;-81
2022/01/03 03:23:00;;;;;;;8.03;5.60;;;13.20;99.90;;;;;;10211715;29;20630;-81
2022/01/03 03:28:15;;;;;;;8.37;5.20;;;12.80;99.90;;;;;;10197959;29;20252;-81
2022/01/03 03:33:22;;;;;;;9.30;5.60;;;12.10;99.90;;;;;;10210476;29;20338;-80
2022/01/03 03:38:32;;;;;;;7.77;5.67;;;11.10;99.90;;;;;;10206577;29;20215;-81
2022/01/03 03:43:38;;;;;;;8.13;7.30;;;10.00;99.90;;;;;;10182172;29;20234;-81
2022/01/03 03:48:44;;;;;;;6.87;5.57;;;10.80;99.90;;;;;;10187113;29;20239;-81
2022/01/03 03:53:51;;;;;;;8.30;7.47;;;10.50;99.90;;;;;;10222022;28;20266;-81
2022/01/03 03:58:58;;;;;;;7.60;6.80;;;11.60;99.90;;;;;;10209727;29;20254;-80
2022/01/03 04:04:01;;;;;;;9.37;7.33;;;11.70;99.90;;;;;;10191744;29;20271;-80
2022/01/03 04:09:04;;;;;;;7.87;7.07;;;12.70;99.90;;;;;;10176557;29;20275;-80
2022/01/03 04:14:08;;;;;;;7.77;6.97;;;13.20;99.90;;;;;;10169333;29;20786;-80
2022/01/03 04:19:11;;;;;;;9.07;7.10;;;13.60;99.90;;;;;;10169782;29;20209;-80
2022/01/03 04:24:14;;;;;;;7.97;7.17;;;13.90;99.90;;;;;;10180763;29;20243;-80
2022/01/03 04:29:17;;;;;;;7.80;7.00;;;14.30;99.90;;;;;;10197030;29;20252;-80
2022/01/03 04:34:20;;;;;;;8.33;5.27;;;14.30;99.90;;;;;;10173699;29;20250;-80
2022/01/03 04:39:23;;;;;;;7.87;6.43;;;14.30;99.90;;;;;;10222227;29;20263;-80
2022/01/03 04:44:27;;;;;;;6.53;5.90;;;14.50;99.90;;;;;;10187665;29;20669;-80
2022/01/03 04:49:30;;;;;;;7.57;6.80;;;14.40;99.90;;;;;;10192619;29;20267;-80
2022/01/03 04:54:33;;;;;;;8.47;5.63;;;14.40;99.90;;;;;;10176832;29;20316;-80
2022/01/03 04:59:36;;;;;;;6.40;4.40;;;14.20;99.90;;;;;;10191266;29;20216;-81
2022/01/03 05:04:39;;;;;;;7.73;4.00;;;13.20;99.90;;;;;;10220131;29;20593;-81
2022/01/03 05:09:42;;;;;;;7.33;4.87;;;12.80;99.90;;;;;;10183055;29;20251;-81
2022/01/03 05:14:44;;;;;;;13.80;6.60;;;12.30;99.90;;;;;;10158015;29;20695;-81
2022/01/03 05:19:47;;;;;;;12.47;6.77;;;11.40;99.90;;;;;;10208471;29;20301;-81
2022/01/03 05:24:50;;;;;;;10.17;6.27;;;10.80;99.90;;;;;;10191299;29;20243;-81
2022/01/03 05:29:52;;;;;;;10.53;7.20;;;12.10;99.90;;;;;;10190826;29;20294;-81
2022/01/03 05:34:55;;;;;;;6.80;6.10;;;11.80;99.90;;;;;;10191224;29;20259;-81
2022/01/03 05:39:58;;;;;;;8.97;6.97;;;12.90;99.90;;;;;;10183546;29;20640;-81
2022/01/03 05:45:04;;;;;;;7.40;6.67;;;13.60;99.90;;;;;;10174547;29;20245;-80
2022/01/03 05:50:07;;;;;;;6.77;4.80;;;13.50;99.90;;;;;;10198728;29;20684;-80
2022/01/03 05:55:10;;;;;;;5.30;3.60;;;12.90;99.90;;;;;;10189617;29;20256;-80
2022/01/03 06:00:16;;;;;;;8.17;6.80;;;12.30;99.90;;;;;;10221272;29;20210;-80
2022/01/03 06:05:32;;;;;;;6.67;4.17;;;12.80;99.90;;;;;;10189805;29;20242;-80
2022/01/03 06:10:39;;;;;;;7.70;4.50;;;11.60;99.90;;;;;;10171333;29;20261;-80
2022/01/03 06:15:44;;;;;;;9.87;5.20;;;11.00;99.90;;;;;;10197766;29;20258;-81
2022/01/03 06:20:48;;;;;;;7.30;6.27;;;10.60;99.90;;;;;;10183524;29;20227;-80
2022/01/03 06:25:53;;;;;;;5.77;4.17;;;10.90;99.90;;;;;;10188098;29;20314;-80
2022/01/03 06:31:09;;;;;;;6.93;3.50;;;10.00;99.90;;;;;;10177616;29;20313;-80
2022/01/03 06:36:12;;;;;;;5.90;3.33;;;10.60;99.90;;;;;;10205749;29;20634;-80
2022/01/03 06:41:16;;;;;;;21.67;10.30;;;10.10;99.90;;;;;;10183081;29;20234;-80
2022/01/03 06:46:19;;;;;;;14.67;9.60;;;9.30;99.90;;;;;;10172805;29;20239;-80
2022/01/03 06:51:21;;;;;;;10.30;7.07;;;10.80;99.90;;;;;;10206828;29;20316;-80
2022/01/03 06:56:24;;;;;;;5.83;4.70;;;12.30;99.90;;;;;;10173620;29;20300;-80
2022/01/03 07:01:27;;;;;;;5.43;4.90;;;12.70;99.90;;;;;;10161666;29;20244;-80
2022/01/03 07:06:32;;;;;;;6.50;5.67;;;13.30;99.90;;;;;;10179433;29;20246;-81
2022/01/03 07:11:35;;;;;;;5.07;3.57;;;13.30;99.90;;;;;;10202315;29;20370;-81
2022/01/03 07:22:00;;;;;;;7.13;6.40;;;13.60;99.90;;;;;;10200269;29;20300;-80
2022/01/03 07:27:05;;;;;;;8.50;5.73;;;13.20;99.90;;;;;;10210621;29;20264;-80
2022/01/03 07:32:08;;;;;;;3.77;3.47;;;13.60;99.90;;;;;;10205828;29;20231;-80
2022/01/03 07:37:11;;;;;;;6.37;5.63;;;13.90;99.90;;;;;;10194478;29;20237;-81
2022/01/03 07:42:13;;;;;;;5.83;5.30;;;14.40;99.90;;;;;;10211498;29;20673;-80
2022/01/03 07:47:27;;;;;;;5.37;4.50;;;14.20;99.90;;;;;;10208721;29;20271;-83
2022/01/03 07:52:29;;;;;;;6.97;6.27;;;14.30;99.90;;;;;;10224829;28;20263;-81
2022/01/03 07:57:32;;;;;;;8.63;6.60;;;14.50;99.90;;;;;;10208990;29;20243;-81
2022/01/03 08:02:37;;;;;;;8.13;5.97;;;14.30;99.90;;;;;;10210647;29;20661;-81
2022/01/03 08:07:42;;;;;;;6.40;5.67;;;14.30;99.90;;;;;;10208087;29;20250;-80
2022/01/03 08:12:45;;;;;;;7.10;6.50;;;14.20;99.90;;;;;;10210068;29;20755;-81
2022/01/03 08:17:48;;;;;;;7.63;5.90;;;14.00;99.90;;;;;;10210860;29;20669;-80
2022/01/03 08:22:50;;;;;;;5.60;4.00;;;14.20;99.90;;;;;;10209756;29;20271;-80
2022/01/03 08:27:53;;;;;;;4.47;3.97;;;14.20;99.90;;;;;;10213653;29;20278;-82
2022/01/03 08:32:55;;;;;;;5.97;5.47;;;13.60;99.90;;;;;;10192791;29;20291;-80
2022/01/03 08:37:59;;;;;;;5.37;4.87;;;13.40;99.90;;;;;;10191557;29;20239;-80
2022/01/03 08:43:02;;;;;;;4.67;3.97;;;13.60;99.90;;;;;;10208621;29;20243;-81
2022/01/03 08:48:04;;;;;;;6.37;5.50;;;13.10;99.90;;;;;;10207182;29;20294;-81
2022/01/03 08:53:07;;;;;;;3.93;3.23;;;12.90;99.90;;;;;;10206494;29;20638;-81
2022/01/03 08:58:12;;;;;;;4.83;4.17;;;11.80;99.90;;;;;;10191516;29;20235;-81
2022/01/03 09:03:15;;;;;;;4.00;2.27;;;11.00;99.90;;;;;;10186976;29;20344;-81
2022/01/03 09:08:18;;;;;;;3.57;2.87;;;11.60;99.90;;;;;;10190242;29;20311;-80
2022/01/03 09:13:21;;;;;;;2.20;1.73;;;11.60;99.90;;;;;;10188216;29;20706;-82
2022/01/03 09:18:26;;;;;;;2.27;1.53;;;10.80;99.90;;;;;;10184795;29;20234;-80
2022/01/03 09:23:32;;;;;;;2.20;1.30;;;8.80;99.90;;;;;;10189294;29;20243;-80
2022/01/03 09:28:51;;;;;;;3.03;1.63;;;9.00;99.90;;;;;;10204103;29;20445;-81
2022/01/03 09:33:57;;;;;;;2.07;1.10;;;7.90;99.90;;;;;;10203069;29;20258;-80
2022/01/03 09:39:00;;;;;;;1.63;0.77;;;8.20;99.90;;;;;;10205422;29;20234;-80
2022/01/03 09:44:08;;;;;;;1.63;1.47;;;8.20;99.90;;;;;;10204120;29;20238;-81
2022/01/03 09:49:13;;;;;;;3.27;2.97;;;8.70;99.90;;;;;;10206916;29;20246;-82
2022/01/03 09:54:15;;;;;;;1.70;1.23;;;8.60;99.90;;;;;;10205814;29;20669;-81
2022/01/03 09:59:19;;;;;;;1.47;0.90;;;8.50;99.90;;;;;;10205498;29;20641;-82
2022/01/03 10:04:22;;;;;;;1.23;1.13;;;8.60;99.90;;;;;;10187994;29;20700;-81
2022/01/03 10:09:25;;;;;;;3.27;2.70;;;8.00;99.90;;;;;;10183189;29;20309;-78
2022/01/03 10:14:27;;;;;;;2.03;1.27;;;9.50;99.90;;;;;;10187578;29;20322;-78
2022/01/03 10:19:30;;;;;;;2.90;2.60;;;8.70;99.90;;;;;;10205994;29;20290;-78
2022/01/03 10:24:37;;;;;;;3.40;2.73;;;10.60;99.90;;;;;;10218984;29;20701;-79
2022/01/03 10:29:41;;;;;;;3.33;3.03;;;9.70;99.90;;;;;;10232104;29;20269;-79
2022/01/03 10:34:43;;;;;;;2.17;1.90;;;10.90;99.90;;;;;;10192191;29;20763;-79
2022/01/03 10:39:46;;;;;;;5.97;2.67;;;10.00;99.90;;;;;;10204129;29;20298;-78
2022/01/03 10:44:48;;;;;;;3.07;1.27;;;10.50;99.90;;;;;;10209459;29;20242;-79
2022/01/03 10:49:51;;;;;;;2.37;1.50;;;11.30;99.90;;;;;;10198480;29;20273;-79
2022/01/03 10:55:11;;;;;;;2.77;2.17;;;11.30;99.90;;;;;;10211720;29;20285;-78
2022/01/03 11:00:21;;;;;;;2.13;1.80;;;11.50;99.90;;;;;;10210999;29;20239;-79
2022/01/03 11:05:38;;;;;;;3.40;2.93;;;9.50;99.90;;;;;;10193621;29;20676;-79
2022/01/03 11:10:45;;;;;;;2.57;1.73;;;11.60;99.90;;;;;;10192775;29;20331;-79
2022/01/03 11:15:59;;;;;;;2.77;2.17;;;10.60;99.90;;;;;;10190746;29;20254;-79
2022/01/03 11:21:15;;;;;;;5.57;3.10;;;9.50;99.90;;;;;;10234430;29;20289;-79
2022/01/03 11:26:20;;;;;;;3.57;2.00;;;11.40;99.90;;;;;;10222083;29;20233;-79
2022/01/03 11:31:23;;;;;;;3.87;2.53;;;10.10;99.90;;;;;;10219153;29;20700;-80
2022/01/03 11:36:26;;;;;;;5.77;3.20;;;11.80;99.90;;;;;;10190627;29;20296;-79
2022/01/03 11:41:29;;;;;;;3.30;2.70;;;10.60;99.90;;;;;;10178831;29;20242;-80
2022/01/03 11:46:33;;;;;;;5.20;2.63;;;11.40;99.90;;;;;;10210686;29;20243;-79
2022/01/03 11:51:37;;;;;;;8.17;3.27;;;11.40;99.90;;;;;;10212145;29;20239;-79
2022/01/03 11:56:46;;;;;;;6.23;3.13;;;11.80;99.90;;;;;;10170136;29;20255;-79
2022/01/03 12:07:56;;;;;;;5.77;3.00;;;11.70;99.90;;;;;;10194134;29;20246;-78
2022/01/03 12:12:59;;;;;;;5.33;3.77;;;11.20;99.90;;;;;;10210364;29;20246;-79
2022/01/03 12:18:03;;;;;;;7.97;5.10;;;10.30;99.90;;;;;;10169958;29;20345;-79
2022/01/03 12:23:06;;;;;;;11.40;5.67;;;11.20;99.90;;;;;;10193067;29;20652;-79
2022/01/03 12:28:10;;;;;;;5.53;3.17;;;9.70;99.90;;;;;;10200091;29;20243;-81
2022/01/03 12:33:14;;;;;;;6.93;3.83;;;12.10;99.90;;;;;;10205685;29;20234;-80
2022/01/03 12:38:21;;;;;;;7.67;3.70;;;12.90;99.90;;;;;;10189666;29;20268;-79
2022/01/03 12:43:45;;;;;;;7.83;4.60;;;12.20;99.90;;;;;;10199570;29;20679;-79
2022/01/03 12:48:48;;;;;;;11.13;4.87;;;13.30;99.90;;;;;;10169110;29;20701;-81
2022/01/03 12:53:52;;;;;;;7.83;3.93;;;13.00;99.90;;;;;;10198806;29;20251;-80
2022/01/03 12:58:56;;;;;;;8.77;4.20;;;12.90;99.90;;;;;;10207910;29;20682;-80
2022/01/03 13:04:03;;;;;;;8.37;3.80;;;13.00;99.90;;;;;;10190009;29;20297;-80
2022/01/03 13:09:11;;;;;;;10.50;4.60;;;11.90;99.90;;;;;;10206717;29;20331;-80
2022/01/03 13:14:22;;;;;;;11.67;4.43;;;11.40;99.90;;;;;;10222428;29;20258;-79
2022/01/03 13:19:30;;;;;;;6.77;4.30;;;10.90;99.90;;;;;;10191078;29;20250;-81
2022/01/03 13:24:38;;;;;;;5.47;3.50;;;12.70;99.90;;;;;;10215515;29;20230;-80
2022/01/03 13:29:44;;;;;;;7.60;3.70;;;13.50;99.90;;;;;;10205723;29;20278;-79
2022/01/03 13:34:48;;;;;;;10.03;4.90;;;12.50;99.90;;;;;;10182098;29;20724;-79
2022/01/03 13:39:53;;;;;;;15.23;3.90;;;12.20;99.90;;;;;;10189210;29;20266;-79
2022/01/03 13:49:59;;;;;;;7.27;3.67;;;12.90;99.90;;;;;;10206325;29;20235;-79
2022/01/03 13:55:33;;;;;;;7.93;3.67;;;13.70;99.90;;;;;;10189748;29;20314;-79
2022/01/03 14:01:01;;;;;;;6.67;3.60;;;12.20;99.90;;;;;;10166423;29;20688;-79
2022/01/03 14:06:13;;;;;;;5.50;3.47;;;12.80;99.90;;;;;;10201952;29;20291;-79
2022/01/03 14:11:19;;;;;;;11.90;4.80;;;12.90;99.90;;;;;;10193671;29;20246;-79
2022/01/03 14:16:27;;;;;;;6.43;4.80;;;12.40;99.90;;;;;;10206932;29;20295;-79
2022/01/03 14:21:33;;;;;;;10.63;3.77;;;12.80;99.90;;;;;;10230527;28;20227;-79
2022/01/03 14:26:37;;;;;;;9.77;3.20;;;12.80;99.90;;;;;;10211145;29;20234;-79
2022/01/03 14:31:57;;;;;;;9.73;3.73;;;11.10;99.90;;;;;;10210925;29;20242;-79
2022/01/03 14:37:00;;;;;;;6.83;3.60;;;12.50;99.90;;;;;;10214555;29;20331;-79
2022/01/03 14:42:06;;;;;;;7.67;4.00;;;13.30;99.90;;;;;;10198114;29;20298;-78
2022/01/03 14:47:11;;;;;;;9.03;4.33;;;14.20;99.90;;;;;;10215750;29;20290;-78
2022/01/03 14:52:14;;;;;;;7.63;4.73;;;14.60;99.90;;;;;;10214005;29;20709;-79
2022/01/03 14:57:26;;;;;;;10.13;4.97;;;13.80;99.90;;;;;;10215141;29;20651;-78
2022/01/03 15:02:29;;;;;;;10.57;4.30;;;14.40;99.90;;;;;;10213431;29;20245;-78
2022/01/03 15:07:34;;;;;;;11.40;5.20;;;14.40;99.90;;;;;;10211660;29;20304;-79
2022/01/03 15:12:37;;;;;;;11.13;5.57;;;14.80;99.90;;;;;;10192403;29;20272;-79
2022/01/03 15:17:40;;;;;;;11.27;5.33;;;14.20;99.90;;;;;;10212927;29;20951;-78
2022/01/03 15:22:43;;;;;;;8.80;5.53;;;14.60;99.90;;;;;;10195634;29;20293;-79
2022/01/03 15:27:46;;;;;;;15.47;6.03;;;14.30;99.90;;;;;;10212192;29;20244;-79
2022/01/03 15:32:50;;;;;;;12.53;6.23;;;13.30;99.90;;;;;;10210893;29;20239;-80
2022/01/03 15:37:52;;;;;;;12.03;6.23;;;13.00;99.90;;;;;;10212352;29;21104;-80
2022/01/03 15:42:55;;;;;;;15.50;6.20;;;13.70;99.90;;;;;;10211949;29;20243;-79
2022/01/03 15:47:57;;;;;;;16.50;6.27;;;14.10;99.90;;;;;;10213228;29;20243;-80
2022/01/03 15:53:01;;;;;;;10.90;7.07;;;14.20;99.90;;;;;;10211412;29;20341;-79
2022/01/03 15:58:05;;;;;;;9.70;5.90;;;14.30;99.90;;;;;;10211993;29;20264;-79
2022/01/03 16:03:08;;;;;;;16.30;5.57;;;14.50;99.90;;;;;;10211602;29;20268;-80
2022/01/03 16:08:11;;;;;;;14.13;6.37;;;14.40;99.90;;;;;;10211675;29;20269;-80
2022/01/03 16:13:14;;;;;;;12.27;5.67;;;14.50;99.90;;;;;;10211589;29;20243;-79
2022/01/03 16:18:17;;;;;;;10.03;5.40;;;14.50;99.90;;;;;;10211382;29;20670;-79
2022/01/03 16:23:20;;;;;;;10.63;5.47;;;14.50;99.90;;;;;;10210659;29;20235;-79
2022/01/03 16:28:25;;;;;;;10.07;5.13;;;14.50;99.90;;;;;;10209278;29;20254;-79
2022/01/03 16:33:27;;;;;;;6.93;5.43;;;14.50;99.90;;;;;;10209583;29;20249;-79
2022/01/03 16:38:30;;;;;;;8.83;4.60;;;14.40;99.90;;;;;;10209129;29;20265;-79
2022/01/03 16:43:32;;;;;;;12.57;5.63;;;14.50;99.90;;;;;;10192972;29;20312;-79
2022/01/03 16:48:35;;;;;;;11.53;5.50;;;14.50;99.90;;;;;;10203555;29;20607;-79
2022/01/03 16:53:38;;;;;;;8.87;5.77;;;14.50;99.90;;;;;;10209821;29;20270;-80
2022/01/03 16:58:40;;;;;;;17.03;5.10;;;14.50;99.90;;;;;;10209551;29;20294;-80
2022/01/03 17:03:43;;;;;;;8.03;4.53;;;14.50;99.90;;;;;;10209073;29;20244;-79
2022/01/03 17:08:46;;;;;;;8.17;5.20;;;14.40;99.90;;;;;;10215484;29;20268;-80
2022/01/03 17:13:49;;;;;;;14.90;6.00;;;14.50;99.90;;;;;;10230894;29;20354;-80
2022/01/03 17:18:51;;;;;;;8.67;4.97;;;14.20;99.90;;;;;;10247455;29;20263;-80
2022/01/03 17:23:54;;;;;;;13.07;5.93;;;14.30;99.90;;;;;;10204403;29;20233;-80
2022/01/03 17:28:58;;;;;;;11.43;5.77;;;13.40;99.90;;;;;;10207828;29;20334;-82
2022/01/03 17:34:01;;;;;;;11.97;5.23;;;13.90;99.90;;;;;;10179374;29;20245;-81
2022/01/03 17:39:04;;;;;;;16.43;6.77;;;14.30;99.90;;;;;;10194486;29;20271;-81
2022/01/03 17:44:07;;;;;;;10.63;5.50;;;14.10;99.90;;;;;;10208192;29;20270;-82
2022/01/03 17:49:10;;;;;;;8.87;4.97;;;14.00;99.90;;;;;;10175456;29;20291;-81
2022/01/03 17:54:12;;;;;;;22.20;13.17;;;13.70;99.90;;;;;;10203226;29;20740;-82
2022/01/03 17:59:15;;;;;;;11.73;7.03;;;13.50;99.90;;;;;;10207879;29;20269;-81
2022/01/03 18:04:17;;;;;;;9.03;5.60;;;13.20;99.90;;;;;;10189566;29;20253;-80
2022/01/03 18:09:20;;;;;;;8.80;5.13;;;13.10;99.90;;;;;;10185725;29;20322;-83
2022/01/03 18:14:23;;;;;;;8.43;5.93;;;13.40;99.90;;;;;;10167266;29;20310;-82
2022/01/03 18:19:25;;;;;;;6.57;4.80;;;13.50;99.90;;;;;;10179252;29;20322;-81
2022/01/03 18:24:28;;;;;;;10.47;5.63;;;13.80;99.90;;;;;;10194890;29;20277;-82
2022/01/03 18:29:31;;;;;;;27.77;17.97;;;13.80;99.90;;;;;;10179065;29;20246;-81
2022/01/03 18:34:34;;;;;;;23.87;14.23;;;13.90;99.90;;;;;;10198680;29;20305;-82
2022/01/03 18:39:37;;;;;;;9.17;5.70;;;14.30;99.90;;;;;;10189013;29;20243;-81
2022/01/03 18:44:40;;;;;;;7.40;5.20;;;14.50;99.90;;;;;;10205981;29;20245;-81
2022/01/03 18:49:43;;;;;;;17.00;10.77;;;14.80;99.90;;;;;;9857141;28;10000216;-81
2022/01/03 18:54:46;;;;;;;13.70;6.80;;;14.80;99.90;;;;;;10196201;29;20269;-80
2022/01/03 18:59:48;;;;;;;7.30;5.47;;;15.10;99.90;;;;;;10199118;29;20322;-80
2022/01/03 19:04:52;;;;;;;8.40;6.17;;;15.40;99.90;;;;;;10199109;29;20269;-81
2022/01/03 19:09:54;;;;;;;7.17;5.30;;;15.40;99.90;;;;;;10209268;29;20807;-80
2022/01/03 19:14:57;;;;;;;7.70;5.77;;;15.50;99.90;;;;;;10211541;29;20231;-80
2022/01/03 19:20:00;;;;;;;6.97;5.33;;;15.50;99.90;;;;;;10209946;29;20229;-80
2022/01/03 19:25:02;;;;;;;6.60;5.27;;;15.60;99.90;;;;;;10216027;29;20234;-80
2022/01/03 19:30:06;;;;;;;7.40;5.70;;;15.70;99.90;;;;;;10193253;29;20250;-79
2022/01/03 19:40:50;;;;;;;8.40;5.53;;;16.00;99.90;;;;;;10208083;29;20245;-80
2022/01/03 19:45:54;;;;;;;7.10;5.20;;;15.90;99.90;;;;;;10184398;29;20250;-80
2022/01/03 19:50:58;;;;;;;8.23;4.87;;;15.90;99.90;;;;;;10208516;29;20246;-80
2022/01/03 19:56:01;;;;;;;8.10;5.53;;;16.00;99.90;;;;;;10205215;29;20314;-80
2022/01/03 20:01:03;;;;;;;9.03;5.70;;;15.90;99.90;;;;;;10209210;29;20818;-79
2022/01/03 20:06:06;;;;;;;7.83;4.90;;;15.90;99.90;;;;;;10189378;29;20242;-80
2022/01/03 20:11:09;;;;;;;7.37;5.10;;;15.70;99.90;;;;;;10183444;29;20294;-80
2022/01/03 20:16:13;;;;;;;6.90;4.60;;;15.90;99.90;;;;;;10184398;29;20261;-80
2022/01/03 20:21:16;;;;;;;7.77;4.57;;;15.80;99.90;;;;;;10206554;29;20267;-79
2022/01/03 20:26:19;;;;;;;8.10;5.00;;;15.70;99.90;;;;;;10205763;29;20246;-79
2022/01/03 20:31:22;;;;;;;8.40;5.30;;;15.50;99.90;;;;;;10195038;29;20264;-80
2022/01/03 20:36:25;;;;;;;6.90;4.87;;;15.40;99.90;;;;;;10181137;29;20270;-80
2022/01/03 20:41:27;;;;;;;11.87;6.97;;;14.50;99.90;;;;;;10186026;29;20274;-80
2022/01/03 20:46:31;;;;;;;7.57;5.07;;;15.00;99.90;;;;;;10180088;29;20250;-80
2022/01/03 20:51:33;;;;;;;6.00;4.47;;;15.30;99.90;;;;;;10187295;29;20726;-81
2022/01/03 20:56:36;;;;;;;7.47;4.93;;;15.30;99.90;;;;;;10207584;29;20298;-80
2022/01/03 21:01:39;;;;;;;6.87;4.93;;;15.50;99.90;;;;;;10210437;29;20271;-80
2022/01/03 21:06:42;;;;;;;8.10;5.00;;;15.50;99.90;;;;;;10193119;29;20648;-80
2022/01/03 21:11:45;;;;;;;5.77;4.23;;;15.60;99.90;;;;;;10229797;29;20242;-80
2022/01/03 21:16:47;;;;;;;7.10;4.80;;;15.70;99.90;;;;;;10215401;29;20666;-80
2022/01/03 21:21:51;;;;;;;7.23;4.80;;;15.70;99.90;;;;;;10234252;28;20235;-79
2022/01/03 21:26:55;;;;;;;6.60;4.90;;;15.70;99.90;;;;;;10244848;28;20241;-80
2022/01/03 21:31:58;;;;;;;7.57;5.20;;;15.60;99.90;;;;;;10196224;29;20307;-79
2022/01/03 21:37:00;;;;;;;8.07;5.10;;;15.60;99.90;;;;;;10243547;28;20328;-79
2022/01/03 21:42:04;;;;;;;5.77;4.27;;;15.50;99.90;;;;;;10229670;29;20286;-80
2022/01/03 21:47:06;;;;;;;5.60;3.87;;;15.40;99.90;;;;;;10209401;29;20302;-80
2022/01/03 21:52:09;;;;;;;8.43;4.87;;;15.20;99.90;;;;;;10206376;29;20654;-80
2022/01/03 21:57:11;;;;;;;11.90;6.50;;;15.00;99.90;;;;;;10207767;29;20258;-81
2022/01/03 22:02:14;;;;;;;8.53;5.10;;;14.70;99.90;;;;;;10224351;29;20274;-80
2022/01/03 22:07:17;;;;;;;8.33;5.60;;;15.00;99.90;;;;;;10229953;29;20248;-80
2022/01/03 22:12:21;;;;;;;6.43;4.20;;;15.10;99.90;;;;;;10212155;29;20702;-80
2022/01/03 22:17:23;;;;;;;4.87;3.93;;;14.80;99.90;;;;;;10226356;29;20264;-79
2022/01/03 22:22:26;;;;;;;7.03;4.77;;;15.00;99.90;;;;;;10246771;29;20281;-79
2022/01/03 22:27:29;;;;;;;7.40;4.13;;;14.90;99.90;;;;;;10229685;28;20250;-79
2022/01/03 22:32:31;;;;;;;7.07;4.47;;;14.80;99.90;;;;;;10191151;29;20266;-79
2022/01/03 22:37:34;;;;;;;6.27;4.60;;;14.60;99.90;;;;;;10217458;28;20653;-79
2022/01/03 22:42:37;;;;;;;6.07;4.00;;;14.60;99.90;;;;;;10260372;28;20242;-80
2022/01/03 22:47:39;;;;;;;7.17;4.30;;;14.60;99.90;;;;;;10221978;29;20633;-79
2022/01/03 22:52:42;;;;;;;11.60;4.90;;;14.60;99.90;;;;;;10215066;29;20239;-79
2022/01/03 22:57:44;;;;;;;16.80;7.83;;;14.70;99.90;;;;;;10234145;29;20673;-79
2022/01/03 23:02:47;;;;;;;5.87;4.43;;;14.40;99.90;;;;;;10214406;29;20242;-79
2022/01/03 23:07:50;;;;;;;10.53;5.60;;;14.40;99.90;;;;;;10197831;29;20643;-79
2022/01/03 23:12:52;;;;;;;4.47;3.63;;;14.30;99.90;;;;;;10242718;28;20250;-79
2022/01/03 23:17:55;;;;;;;11.07;5.73;;;14.50;99.90;;;;;;10196587;29;20255;-79
2022/01/03 23:22:58;;;;;;;6.67;3.93;;;14.40;99.90;;;;;;10196818;29;20238;-79
2022/01/03 23:28:00;;;;;;;8.03;4.23;;;14.50;99.90;;;;;;10213701;29;20303;-79
2022/01/03 23:33:03;;;;;;;6.47;4.53;;;14.70;99.90;;;;;;10213637;29;20239;-79
2022/01/03 23:38:06;;;;;;;7.83;5.27;;;14.70;99.90;;;;;;10223332;29;20254;-79
2022/01/03 23:43:08;;;;;;;6.53;4.03;;;14.90;99.90;;;;;;10235438;29;20635;-79
2022/01/03 23:48:11;;;;;;;6.60;4.00;;;14.90;99.90;;;;;;10235800;29;20686;-79
2022/01/03 23:53:13;;;;;;;7.80;4.40;;;14.90;99.90;;;;;;10206621;29;20238;-79
2022/01/03 23:58:16;;;;;;;8.17;4.60;;;14.70;99.90;;;;;;10230447;29;20300;-79
